Time;durP1;ratioP1;P1;durP2;ratioP2;P2;SDS_P1;SDS_P2;PMS_P1;PMS_P2;Temp;Humidity;BMP_temperature;BMP_pressure;BME280_temperature;BME280_humidity;BME280_pressure;Samples;Min_cycle;Max_cycle;Signal;HPM_P1;HPM_P2
2021/03/12 00:00:14;;;;;;;0.30;0.20;;;;;;;7.24;98.19;99324.81;5041982;28;20447;-56
2021/03/12 00:02:40;;;;;;;0.30;0.20;;;;;;;7.28;97.42;99323.81;5054203;28;20550;-56
2021/03/12 00:05:08;;;;;;;0.30;0.10;;;;;;;7.24;98.12;99333.59;5044493;28;20458;-56
2021/03/12 00:07:35;;;;;;;0.30;0.20;;;;;;;7.09;98.28;99332.28;5041748;28;20521;-56
2021/03/12 00:10:12;;;;;;;0.30;0.20;;;;;;;7.23;97.73;99355.66;5046057;28;20459;-56
2021/03/12 00:12:39;;;;;;;0.30;0.17;;;;;;;7.32;97.50;99347.47;5047949;28;20498;-56
2021/03/12 00:15:08;;;;;;;0.30;0.10;;;;;;;7.30;96.28;99346.66;5044519;28;20457;-56
2021/03/12 00:17:35;;;;;;;0.30;0.20;;;;;;;7.13;96.94;99352.44;5041639;28;20992;-56
2021/03/12 00:20:15;;;;;;;0.30;0.20;;;;;;;7.23;96.48;99360.94;5043879;28;20505;-56
2021/03/12 00:22:41;;;;;;;0.30;0.10;;;;;;;7.17;96.96;99360.28;5047570;28;20443;-56
2021/03/12 00:25:14;;;;;;;0.30;0.20;;;;;;;7.23;96.37;99358.31;5046798;28;20932;-56
2021/03/12 00:27:41;;;;;;;0.30;0.10;;;;;;;7.19;96.81;99369.03;5046917;28;20483;-56
2021/03/12 00:30:09;;;;;;;0.30;0.20;;;;;;;7.20;95.95;99362.81;5047626;28;20450;-55
2021/03/12 00:32:35;;;;;;;0.30;0.10;;;;;;;7.14;95.98;99371.81;5038830;28;20517;-56
2021/03/12 00:35:04;;;;;;;0.30;0.20;;;;;;;7.29;95.40;99379.28;5028458;28;20462;-56
2021/03/12 00:37:30;;;;;;;0.30;0.20;;;;;;;7.26;95.22;99384.63;5047420;28;20487;-56
2021/03/12 00:39:57;;;;;;;0.30;0.20;;;;;;;7.23;95.95;99387.38;5050360;28;20988;-56
2021/03/12 00:42:23;;;;;;;0.30;0.20;;;;;;;7.21;94.03;99399.78;5043572;28;20451;-56
2021/03/12 00:44:49;;;;;;;0.30;0.20;;;;;;;7.29;94.35;99397.78;5040630;28;20459;-56
2021/03/12 00:47:16;;;;;;;0.30;0.20;;;;;;;7.24;94.59;99404.97;5048172;28;21035;-56
2021/03/12 00:49:42;;;;;;;0.30;0.20;;;;;;;7.41;93.44;99404.50;5050749;28;20451;-56
2021/03/12 00:52:08;;;;;;;0.30;0.20;;;;;;;7.30;93.84;99407.44;5045372;28;20447;-56
2021/03/12 00:54:34;;;;;;;0.30;0.10;;;;;;;7.18;93.88;99413.09;5040675;28;20807;-56
2021/03/12 00:57:01;;;;;;;0.30;0.20;;;;;;;7.21;94.26;99417.41;5043614;28;20479;-56
2021/03/12 00:59:27;;;;;;;0.27;0.10;;;;;;;7.01;93.57;99416.22;5041874;28;21117;-56
2021/03/12 01:01:53;;;;;;;0.30;0.20;;;;;;;7.17;93.41;99427.22;5044768;28;20456;-56
2021/03/12 01:04:20;;;;;;;0.30;0.20;;;;;;;7.02;92.52;99422.38;5047387;28;20870;-55
2021/03/12 01:06:46;;;;;;;0.30;0.20;;;;;;;7.11;91.31;99407.09;5043194;28;20521;-56
2021/03/12 01:09:12;;;;;;;0.30;0.10;;;;;;;7.15;90.72;99410.53;5041414;28;20448;-56
2021/03/12 01:11:38;;;;;;;0.30;0.20;;;;;;;7.17;89.36;99429.84;5047804;28;20497;-56
2021/03/12 01:14:05;;;;;;;0.30;0.20;;;;;;;7.09;86.18;99413.34;5050356;28;20512;-56
2021/03/12 01:16:31;;;;;;;0.30;0.20;;;;;;;7.08;86.49;99415.13;5045497;28;20497;-56
2021/03/12 01:18:57;;;;;;;0.30;0.10;;;;;;;6.98;87.12;99428.63;5043939;28;20491;-56
2021/03/12 01:21:24;;;;;;;0.30;0.20;;;;;;;7.09;86.11;99432.69;5047225;28;20854;-56
2021/03/12 01:23:50;;;;;;;0.30;0.20;;;;;;;7.05;86.89;99430.19;5050400;28;20451;-56
2021/03/12 01:26:17;;;;;;;0.30;0.20;;;;;;;7.05;86.59;99449.56;5049506;28;20524;-56
2021/03/12 01:28:43;;;;;;;0.30;0.20;;;;;;;6.95;86.97;99445.44;5046012;28;20460;-56
2021/03/12 01:31:09;;;;;;;0.30;0.20;;;;;;;7.04;86.33;99450.47;5051390;28;20829;-56
2021/03/12 01:33:35;;;;;;;0.30;0.20;;;;;;;7.02;87.01;99447.00;5039396;28;20459;-56
2021/03/12 01:36:02;;;;;;;0.30;0.20;;;;;;;6.91;87.24;99451.72;5050865;28;20457;-56
2021/03/12 01:38:28;;;;;;;0.30;0.17;;;;;;;7.04;87.78;99452.25;5047241;28;20490;-56
2021/03/12 01:40:54;;;;;;;0.30;0.20;;;;;;;7.07;86.86;99468.00;5039863;28;20456;-56
2021/03/12 01:43:20;;;;;;;0.30;0.20;;;;;;;6.95;87.15;99468.34;5040339;28;20450;-56
2021/03/12 01:45:49;;;;;;;0.30;0.20;;;;;;;7.01;86.95;99452.34;5050766;28;20474;-57
2021/03/12 01:48:18;;;;;;;0.30;0.10;;;;;;;6.97;88.26;99462.09;5055001;28;20501;-56
2021/03/12 01:50:47;;;;;;;0.30;0.20;;;;;;;6.93;87.43;99460.47;5051649;28;20894;-56
2021/03/12 01:53:16;;;;;;;0.30;0.10;;;;;;;6.95;87.26;99460.41;5045456;28;20501;-56
2021/03/12 01:55:43;;;;;;;0.30;0.10;;;;;;;6.88;88.25;99470.31;5044674;28;20479;-56
2021/03/12 01:58:10;;;;;;;0.30;0.17;;;;;;;7.01;86.89;99476.97;5053189;28;20498;-56
2021/03/12 02:00:37;;;;;;;0.30;0.20;;;;;;;6.90;86.85;99476.41;5051795;28;20881;-56
2021/03/12 02:03:09;;;;;;;0.30;0.10;;;;;;;6.94;87.13;99482.47;5047096;28;20453;-56
2021/03/12 02:05:37;;;;;;;0.30;0.13;;;;;;;6.87;87.45;99480.91;5048583;28;20475;-56
2021/03/12 02:08:05;;;;;;;0.30;0.20;;;;;;;6.82;87.23;99470.44;5052000;28;20475;-56
2021/03/12 02:10:31;;;;;;;0.30;0.20;;;;;;;6.88;84.84;99475.59;5052055;28;20451;-56
2021/03/12 02:13:37;;;;;;;0.30;0.10;;;;;;;6.89;85.70;99481.72;5034839;28;20446;-56
2021/03/12 02:16:10;;;;;;;0.30;0.10;;;;;;;6.77;87.23;99480.28;5047081;28;20447;-56
2021/03/12 02:18:42;;;;;;;0.30;0.10;;;;;;;6.82;86.77;99484.50;5049020;28;20519;-56
2021/03/12 02:21:34;;;;;;;0.30;0.20;;;;;;;7.03;86.28;99484.88;5048015;28;20451;-56
2021/03/12 02:24:18;;;;;;;0.30;0.10;;;;;;;6.89;87.14;99484.38;5047539;28;20451;-56
2021/03/12 02:26:44;;;;;;;0.30;0.10;;;;;;;6.73;87.84;99490.06;5048917;28;20459;-56
2021/03/12 02:29:14;;;;;;;0.30;0.10;;;;;;;6.76;87.92;99489.09;5055145;28;20440;-56
2021/03/12 02:31:41;;;;;;;0.30;0.10;;;;;;;6.68;88.50;99489.28;5054381;28;20457;-56
2021/03/12 02:34:10;;;;;;;0.30;0.20;;;;;;;6.89;87.49;99495.81;5038695;28;20458;-56
2021/03/12 02:36:40;;;;;;;1.37;1.33;;;;;;;6.91;87.61;99501.91;5054425;28;20481;-56
2021/03/12 02:39:09;;;;;;;0.30;0.10;;;;;;;6.85;87.35;99507.34;5049362;28;20974;-56
2021/03/12 02:41:37;;;;;;;0.30;0.20;;;;;;;6.78;88.36;99518.97;5046540;28;20463;-56
2021/03/12 02:44:06;;;;;;;0.30;0.10;;;;;;;6.78;87.14;99521.63;5052067;28;20452;-56
2021/03/12 02:46:32;;;;;;;0.30;0.10;;;;;;;6.73;87.71;99520.88;5053822;28;20485;-56
2021/03/12 02:48:59;;;;;;;0.30;0.10;;;;;;;6.52;88.64;99523.13;5048513;28;20928;-56
2021/03/12 02:51:25;;;;;;;0.30;0.20;;;;;;;6.69;87.80;99520.06;5046514;28;20452;-56
2021/03/12 02:53:52;;;;;;;0.30;0.20;;;;;;;6.56;87.49;99523.91;5051089;28;20463;-56
2021/03/12 02:56:20;;;;;;;0.30;0.20;;;;;;;6.72;87.33;99538.50;5042568;28;20536;-56
2021/03/12 02:58:48;;;;;;;0.30;0.20;;;;;;;6.63;86.99;99533.44;5050045;28;20519;-56
2021/03/12 03:01:16;;;;;;;0.20;0.10;;;;;;;6.55;86.68;99548.59;5053545;28;20448;-56
2021/03/12 03:03:44;;;;;;;0.30;0.20;;;;;;;6.69;87.19;99556.19;5029792;28;20954;-56
2021/03/12 03:06:11;;;;;;;0.30;0.20;;;;;;;6.52;86.16;99565.38;5051486;28;20486;-56
2021/03/12 03:08:42;;;;;;;0.30;0.20;;;;;;;6.69;87.03;99561.47;5050502;28;20443;-56
2021/03/12 03:11:09;;;;;;;0.30;0.20;;;;;;;6.46;87.88;99565.53;5044534;28;20481;-56
2021/03/12 03:13:56;;;;;;;0.30;0.13;;;;;;;6.54;88.27;99581.19;5044991;28;20527;-56
2021/03/12 03:16:28;;;;;;;0.30;0.10;;;;;;;6.50;88.75;99574.25;5051145;28;20486;-56
2021/03/12 03:18:57;;;;;;;0.30;0.13;;;;;;;6.56;87.52;99573.22;5053884;28;20548;-56
2021/03/12 03:21:25;;;;;;;0.30;0.10;;;;;;;6.51;88.18;99586.53;5050324;28;20447;-56
2021/03/12 03:23:52;;;;;;;0.30;0.20;;;;;;;6.49;88.15;99575.16;5047506;28;20451;-56
2021/03/12 03:26:18;;;;;;;0.30;0.10;;;;;;;6.57;86.65;99575.81;5050884;28;20525;-56
2021/03/12 03:28:44;;;;;;;0.30;0.10;;;;;;;6.60;85.27;99586.34;5054334;28;20447;-56
2021/03/12 03:31:10;;;;;;;0.30;0.10;;;;;;;6.68;85.30;99587.00;5050203;28;20802;-56
2021/03/12 03:33:36;;;;;;;0.30;0.20;;;;;;;6.62;84.66;99586.28;5048046;28;20459;-56
2021/03/12 03:36:03;;;;;;;0.30;0.20;;;;;;;6.65;84.31;99578.28;5050451;28;20454;-56
2021/03/12 03:38:30;;;;;;;0.30;0.20;;;;;;;6.58;84.55;99587.25;5054202;28;20522;-56
2021/03/12 03:40:57;;;;;;;0.30;0.10;;;;;;;6.46;84.57;99602.50;5050996;28;20466;-56
2021/03/12 03:43:32;;;;;;;0.30;0.20;;;;;;;6.56;84.44;99607.53;5047333;28;20447;-56
2021/03/12 03:46:04;;;;;;;0.30;0.20;;;;;;;6.62;85.11;99608.28;5048237;28;20462;-56
2021/03/12 03:48:33;;;;;;;0.30;0.20;;;;;;;6.39;85.75;99616.72;5054635;28;20472;-56
2021/03/12 03:51:01;;;;;;;0.30;0.20;;;;;;;6.35;86.30;99614.19;5053117;28;20510;-56
2021/03/12 03:53:31;;;;;;;0.30;0.20;;;;;;;6.44;86.83;99624.53;5046554;28;20454;-56
2021/03/12 03:56:02;;;;;;;0.30;0.10;;;;;;;6.32;87.83;99620.41;5043063;28;20870;-56
2021/03/12 03:58:30;;;;;;;0.30;0.20;;;;;;;6.40;88.05;99620.22;5052076;28;20842;-56
2021/03/12 04:00:58;;;;;;;0.30;0.10;;;;;;;6.44;87.53;99622.78;5053692;28;20451;-56
2021/03/12 04:03:25;;;;;;;0.27;0.20;;;;;;;6.50;87.76;99627.03;5052548;28;20455;-56
2021/03/12 04:05:57;;;;;;;0.20;0.10;;;;;;;6.60;87.61;99623.28;5053532;28;20501;-56
2021/03/12 04:08:24;;;;;;;0.30;0.13;;;;;;;6.50;87.72;99629.69;5049231;28;20493;-56
2021/03/12 04:10:55;;;;;;;0.30;0.10;;;;;;;6.57;87.29;99638.31;5047066;28;20451;-56
2021/03/12 04:13:21;;;;;;;0.30;0.10;;;;;;;6.57;88.37;99643.59;5051393;28;20447;-56
2021/03/12 04:15:47;;;;;;;0.30;0.10;;;;;;;6.33;89.23;99647.69;5052694;28;20937;-56
2021/03/12 04:18:14;;;;;;;0.30;0.10;;;;;;;6.32;89.34;99656.50;5049022;28;20852;-56
2021/03/12 04:20:42;;;;;;;0.30;0.20;;;;;;;6.46;89.43;99662.34;5045760;28;20993;-56
2021/03/12 04:23:08;;;;;;;0.20;0.10;;;;;;;6.23;91.32;99665.47;5049263;28;20463;-56
2021/03/12 04:25:35;;;;;;;0.30;0.20;;;;;;;6.37;90.55;99659.91;5053584;28;20839;-56
2021/03/12 04:28:03;;;;;;;0.30;0.13;;;;;;;6.24;92.21;99676.00;5049981;28;20463;-56
2021/03/12 04:30:30;;;;;;;0.20;0.10;;;;;;;6.36;91.81;99668.72;5046138;28;20451;-56
2021/03/12 04:32:58;;;;;;;0.30;0.10;;;;;;;6.27;92.84;99676.81;5049160;28;20454;-55
2021/03/12 04:35:24;;;;;;;0.30;0.10;;;;;;;6.00;94.89;99673.84;5053298;28;20456;-55
2021/03/12 04:37:52;;;;;;;0.30;0.20;;;;;;;6.10;94.11;99680.69;5050405;28;20498;-54
2021/03/12 04:40:18;;;;;;;0.30;0.20;;;;;;;6.32;93.85;99674.97;5048292;28;20455;-55
2021/03/12 04:42:46;;;;;;;0.30;0.10;;;;;;;6.12;94.79;99676.25;5046428;28;20942;-56
2021/03/12 04:45:13;;;;;;;0.20;0.10;;;;;;;6.07;95.00;99680.75;5045372;28;20976;-55
2021/03/12 04:47:39;;;;;;;0.30;0.10;;;;;;;6.15;94.37;99686.72;5043664;28;20532;-56
2021/03/12 04:50:09;;;;;;;0.30;0.20;;;;;;;6.02;95.54;99679.94;5039354;28;20447;-55
2021/03/12 04:52:38;;;;;;;0.27;0.20;;;;;;;6.04;94.69;99675.53;5040221;28;20448;-55
2021/03/12 04:55:08;;;;;;;0.30;0.20;;;;;;;6.12;94.37;99680.66;5042630;28;20439;-56
2021/03/12 04:57:37;;;;;;;0.30;0.20;;;;;;;6.09;94.91;99678.06;5046000;28;20470;-54
2021/03/12 05:00:08;;;;;;;0.27;0.10;;;;;;;6.04;94.82;99678.19;5043152;28;20447;-56
2021/03/12 05:02:35;;;;;;;0.20;0.10;;;;;;;6.24;95.20;99685.69;5042231;28;20574;-55
2021/03/12 05:05:05;;;;;;;0.30;0.20;;;;;;;6.32;94.30;99678.47;5048064;28;20505;-56
2021/03/12 05:07:33;;;;;;;0.30;0.20;;;;;;;6.33;94.05;99684.63;5049278;28;20766;-56
2021/03/12 05:10:00;;;;;;;0.30;0.17;;;;;;;6.18;94.67;99691.09;5045972;28;20454;-55
2021/03/12 05:12:27;;;;;;;0.30;0.10;;;;;;;6.31;94.58;99691.72;5043094;28;20454;-55
2021/03/12 05:14:53;;;;;;;0.30;0.20;;;;;;;6.30;94.53;99688.16;5048133;28;20501;-55
2021/03/12 05:17:22;;;;;;;0.20;0.10;;;;;;;6.20;92.86;99694.56;5051755;28;20470;-55
2021/03/12 05:19:49;;;;;;;0.30;0.10;;;;;;;6.31;92.76;99686.44;5049770;28;20494;-55
2021/03/12 05:22:15;;;;;;;0.30;0.20;;;;;;;6.22;92.90;99680.44;5049427;28;20459;-55
2021/03/12 05:24:42;;;;;;;0.30;0.20;;;;;;;6.30;92.93;99688.16;5053082;28;20451;-55
2021/03/12 05:27:08;;;;;;;0.30;0.20;;;;;;;6.36;91.86;99685.41;5054534;28;21043;-55
2021/03/12 05:29:34;;;;;;;0.30;0.20;;;;;;;6.36;91.82;99698.63;5051059;28;20855;-56
2021/03/12 05:32:01;;;;;;;0.30;0.10;;;;;;;6.36;92.08;99700.38;5045212;28;20477;-55
2021/03/12 05:34:27;;;;;;;0.30;0.20;;;;;;;6.20;91.71;99713.91;5032538;28;20458;-56
2021/03/12 05:36:53;;;;;;;0.20;0.10;;;;;;;6.33;91.17;99711.88;5049273;28;20498;-56
2021/03/12 05:39:20;;;;;;;0.30;0.20;;;;;;;6.26;92.38;99707.63;5035441;28;20491;-55
2021/03/12 05:41:47;;;;;;;0.30;0.10;;;;;;;6.29;91.85;99719.88;5044836;28;20451;-56
2021/03/12 05:44:13;;;;;;;0.27;0.17;;;;;;;6.16;92.69;99725.41;5044216;28;20802;-56
2021/03/12 05:46:40;;;;;;;0.30;0.20;;;;;;;6.30;92.40;99730.41;5048590;28;20894;-55
2021/03/12 05:49:08;;;;;;;0.20;0.10;;;;;;;6.37;92.75;99725.88;5045917;28;20446;-56
2021/03/12 05:51:35;;;;;;;0.30;0.20;;;;;;;6.50;91.59;99730.00;5042128;28;20450;-56
2021/03/12 05:54:04;;;;;;;0.30;0.20;;;;;;;6.44;92.25;99738.03;5044910;28;20452;-55
2021/03/12 05:56:32;;;;;;;0.30;0.10;;;;;;;6.27;92.52;99738.38;5040070;28;20463;-56
2021/03/12 05:58:58;;;;;;;0.30;0.20;;;;;;;6.40;92.57;99737.25;5045327;28;20993;-55
2021/03/12 06:01:25;;;;;;;0.27;0.17;;;;;;;6.33;93.89;99740.06;5056783;28;20530;-55
2021/03/12 06:03:52;;;;;;;0.20;0.10;;;;;;;6.31;93.05;99740.09;5047239;28;20845;-56
2021/03/12 06:06:18;;;;;;;0.30;0.20;;;;;;;6.37;92.13;99739.06;5053152;28;20494;-56
2021/03/12 06:08:44;;;;;;;0.30;0.10;;;;;;;6.32;93.03;99738.31;5047893;28;20500;-55
2021/03/12 06:11:11;;;;;;;0.30;0.10;;;;;;;6.19;94.06;99735.91;5038842;28;20863;-55
2021/03/12 06:13:51;;;;;;;0.20;0.10;;;;;;;6.31;93.94;99744.50;5044716;28;20506;-56
2021/03/12 06:16:25;;;;;;;0.30;0.13;;;;;;;6.26;94.32;99743.69;5031534;28;20536;-56
2021/03/12 06:19:11;;;;;;;0.30;0.10;;;;;;;6.13;95.68;99740.44;5043488;28;21004;-56
2021/03/12 06:21:42;;;;;;;0.30;0.10;;;;;;;6.24;96.31;99736.69;5045535;28;20448;-56
2021/03/12 06:24:24;;;;;;;0.20;0.10;;;;;;;6.15;96.60;99746.53;5049352;28;20458;-56
2021/03/12 06:26:51;;;;;;;0.27;0.10;;;;;;;6.32;96.47;99746.22;5049625;28;20882;-56
2021/03/12 06:29:17;;;;;;;0.30;0.20;;;;;;;6.28;97.03;99750.69;5044028;28;20455;-56
2021/03/12 06:31:51;;;;;;;0.30;0.20;;;;;;;6.36;97.59;99753.19;5041770;28;20448;-56
2021/03/12 06:34:19;;;;;;;0.30;0.10;;;;;;;6.44;96.86;99740.66;5047399;28;20447;-56
2021/03/12 06:36:45;;;;;;;0.30;0.20;;;;;;;6.44;97.10;99736.28;5050050;28;20475;-56
2021/03/12 06:39:11;;;;;;;0.30;0.10;;;;;;;6.56;96.06;99734.28;5036111;28;20857;-55
2021/03/12 06:41:42;;;;;;;0.23;0.10;;;;;;;6.59;96.95;99740.38;5034727;28;20803;-56
2021/03/12 06:44:42;;;;;;;0.30;0.10;;;;;;;6.65;97.68;99737.59;5046680;28;20452;-56
2021/03/12 06:47:08;;;;;;;0.30;0.10;;;;;;;6.76;96.83;99746.16;5031380;28;20486;-56
2021/03/12 06:49:54;;;;;;;0.30;0.10;;;;;;;6.76;96.53;99746.16;5041499;28;20452;-56
2021/03/12 06:52:34;;;;;;;0.30;0.10;;;;;;;6.88;95.94;99752.09;5044399;28;20452;-56
2021/03/12 06:55:00;;;;;;;0.30;0.10;;;;;;;6.90;94.55;99752.91;5044794;28;20444;-56
2021/03/12 06:57:26;;;;;;;0.30;0.20;;;;;;;7.06;93.92;99752.53;5045189;28;20976;-55
2021/03/12 07:00:00;;;;;;;0.23;0.13;;;;;;;7.16;94.29;99747.91;5039099;28;20490;-56
2021/03/12 07:02:36;;;;;;;0.30;0.20;;;;;;;7.14;93.79;99757.66;5040992;28;20452;-55
2021/03/12 07:05:04;;;;;;;0.20;0.10;;;;;;;7.07;92.64;99756.91;5046305;28;20821;-56
2021/03/12 07:07:39;;;;;;;0.30;0.10;;;;;;;7.16;92.75;99761.13;5035512;28;20887;-56
2021/03/12 07:10:08;;;;;;;0.30;0.10;;;;;;;7.16;92.08;99753.19;5039036;28;20859;-55
2021/03/12 07:12:44;;;;;;;0.30;0.20;;;;;;;7.23;91.97;99753.91;5047602;28;20816;-56
2021/03/12 07:15:13;;;;;;;0.20;0.10;;;;;;;7.23;90.96;99749.47;5043893;28;20986;-56
2021/03/12 07:17:40;;;;;;;0.30;0.10;;;;;;;7.19;90.43;99739.91;5040411;28;20496;-55
2021/03/12 07:20:09;;;;;;;0.20;0.10;;;;;;;7.25;89.70;99750.31;5042239;28;20499;-56
2021/03/12 07:22:36;;;;;;;0.30;0.10;;;;;;;7.33;88.19;99740.44;5046375;28;20455;-56
2021/03/12 07:25:05;;;;;;;0.30;0.10;;;;;;;7.46;87.11;99745.41;5045383;28;20500;-56
2021/03/12 07:27:32;;;;;;;0.30;0.10;;;;;;;7.38;87.53;99743.81;5039982;28;20479;-56
2021/03/12 07:30:06;;;;;;;0.30;0.17;;;;;;;7.52;87.79;99740.84;5041490;28;20455;-56
2021/03/12 07:32:36;;;;;;;0.20;0.10;;;;;;;7.65;87.24;99744.03;5046750;28;20448;-56
2021/03/12 07:35:05;;;;;;;0.30;0.10;;;;;;;7.58;87.70;99751.28;5046450;28;20455;-55
2021/03/12 07:37:35;;;;;;;0.30;0.20;;;;;;;7.71;87.32;99754.47;5040024;28;21010;-56
2021/03/12 07:40:05;;;;;;;0.30;0.20;;;;;;;7.61;85.49;99761.78;5037992;28;20543;-55
2021/03/12 07:42:31;;;;;;;0.30;0.10;;;;;;;7.65;85.74;99765.19;5031611;28;20455;-55
2021/03/12 07:44:58;;;;;;;0.30;0.20;;;;;;;7.81;84.97;99765.66;5046319;28;20447;-55
2021/03/12 07:47:29;;;;;;;0.30;0.10;;;;;;;7.75;85.09;99766.72;5041226;28;20485;-55
2021/03/12 07:49:56;;;;;;;0.30;0.20;;;;;;;7.83;85.41;99772.69;5039506;28;20444;-56
2021/03/12 07:52:44;;;;;;;0.30;0.10;;;;;;;7.82;85.60;99780.66;5043725;28;20483;-56
2021/03/12 07:55:11;;;;;;;0.30;0.13;;;;;;;7.87;86.06;99784.91;5041804;28;20531;-56
2021/03/12 07:57:40;;;;;;;0.30;0.13;;;;;;;7.95;85.97;99784.75;5046092;28;20994;-56
2021/03/12 08:00:08;;;;;;;0.30;0.20;;;;;;;8.01;85.15;99784.56;5040329;28;20486;-56
2021/03/12 08:02:50;;;;;;;0.30;0.20;;;;;;;8.08;86.17;99787.91;5039441;28;20474;-56
2021/03/12 08:05:33;;;;;;;0.30;0.10;;;;;;;8.08;85.42;99783.47;5043007;28;20995;-56
2021/03/12 08:07:59;;;;;;;0.30;0.13;;;;;;;8.05;85.97;99801.22;5045838;28;20472;-56
2021/03/12 08:10:25;;;;;;;0.30;0.20;;;;;;;8.01;86.47;99801.31;5044674;28;20443;-55
2021/03/12 08:12:52;;;;;;;0.30;0.20;;;;;;;8.32;85.65;99805.78;5039509;28;20451;-56
2021/03/12 08:15:30;;;;;;;0.30;0.13;;;;;;;8.54;84.94;99799.03;5040591;28;20980;-56
2021/03/12 08:17:56;;;;;;;0.30;0.20;;;;;;;8.69;85.25;99810.09;5026884;28;20471;-56
2021/03/12 08:20:23;;;;;;;0.30;0.10;;;;;;;8.89;85.97;99800.63;5039835;28;20474;-56
2021/03/12 08:22:56;;;;;;;0.30;0.20;;;;;;;8.85;85.63;99812.25;5044541;28;20501;-56
2021/03/12 08:25:32;;;;;;;0.30;0.20;;;;;;;8.87;85.29;99815.72;5045910;28;20910;-56
2021/03/12 08:28:07;;;;;;;0.30;0.20;;;;;;;8.98;84.71;99814.53;5041661;28;20980;-56
2021/03/12 08:30:33;;;;;;;0.30;0.20;;;;;;;9.10;84.54;99814.19;5039289;28;20554;-56
2021/03/12 08:33:05;;;;;;;0.30;0.20;;;;;;;8.99;84.69;99801.25;5041490;28;20451;-56
2021/03/12 08:35:34;;;;;;;0.30;0.20;;;;;;;9.00;84.45;99815.34;5045840;28;20444;-56
2021/03/12 08:38:03;;;;;;;0.30;0.17;;;;;;;9.09;84.28;99813.31;5044011;28;20507;-56
2021/03/12 08:40:31;;;;;;;0.30;0.20;;;;;;;9.14;82.65;99815.81;5039277;28;20455;-56
2021/03/12 08:43:10;;;;;;;0.30;0.20;;;;;;;8.78;83.52;99817.78;5040200;28;20448;-56
2021/03/12 08:45:39;;;;;;;0.30;0.20;;;;;;;9.01;82.41;99814.44;5027849;28;20508;-55
2021/03/12 08:48:10;;;;;;;0.30;0.20;;;;;;;8.92;79.85;99822.69;5038413;28;20570;-56
2021/03/12 08:50:40;;;;;;;0.30;0.20;;;;;;;8.85;79.09;99819.34;5043819;28;20597;-55
2021/03/12 08:53:07;;;;;;;0.30;0.20;;;;;;;8.69;80.34;99815.41;5045535;28;20455;-56
2021/03/12 08:55:35;;;;;;;0.30;0.20;;;;;;;8.80;81.20;99810.66;5032412;28;20833;-56
2021/03/12 08:58:10;;;;;;;0.30;0.20;;;;;;;9.03;81.67;99813.47;5045446;28;20976;-56
2021/03/12 09:00:36;;;;;;;0.30;0.20;;;;;;;8.95;80.60;99820.81;5043823;28;20454;-56
2021/03/12 09:03:21;;;;;;;0.30;0.20;;;;;;;9.06;81.59;99813.41;5047184;28;20459;-55
2021/03/12 09:05:50;;;;;;;0.30;0.10;;;;;;;9.19;81.31;99835.13;5043929;28;20442;-56
2021/03/12 09:08:27;;;;;;;0.30;0.20;;;;;;;9.16;80.76;99833.41;5040404;28;20458;-56
2021/03/12 09:10:54;;;;;;;0.30;0.20;;;;;;;9.11;80.59;99831.81;5032588;28;20448;-55
2021/03/12 09:13:23;;;;;;;0.30;0.20;;;;;;;9.09;81.29;99823.91;5042802;28;20461;-56
2021/03/12 09:15:50;;;;;;;0.30;0.20;;;;;;;9.10;81.11;99838.91;5045396;28;20506;-55
2021/03/12 09:18:37;;;;;;;0.30;0.20;;;;;;;9.02;82.56;99834.72;5044422;28;20497;-56
2021/03/12 09:21:10;;;;;;;0.30;0.20;;;;;;;9.25;82.34;99831.41;5044980;28;20509;-56
2021/03/12 09:23:42;;;;;;;0.30;0.20;;;;;;;9.42;80.23;99831.75;5045434;28;20984;-55
2021/03/12 09:26:14;;;;;;;0.30;0.20;;;;;;;9.46;80.15;99833.41;5040281;28;20466;-56
2021/03/12 09:28:42;;;;;;;0.30;0.20;;;;;;;9.62;79.53;99832.00;5038149;28;20944;-55
2021/03/12 09:31:09;;;;;;;0.30;0.20;;;;;;;9.35;80.05;99831.09;5041558;28;20447;-55
2021/03/12 09:33:45;;;;;;;0.30;0.20;;;;;;;9.46;80.66;99820.16;5045258;28;20466;-56
2021/03/12 09:36:30;;;;;;;0.30;0.20;;;;;;;9.53;80.78;99819.00;5042804;28;20548;-55
2021/03/12 09:39:06;;;;;;;0.30;0.20;;;;;;;9.80;80.33;99823.44;5019145;28;20499;-55
2021/03/12 09:41:35;;;;;;;0.30;0.20;;;;;;;9.98;79.88;99800.69;5028386;28;20447;-56
2021/03/12 09:44:12;;;;;;;0.30;0.20;;;;;;;10.20;77.43;99806.16;5042781;28;20482;-55
2021/03/12 09:46:44;;;;;;;0.30;0.20;;;;;;;10.51;75.50;99792.66;5044592;28;20486;-56
2021/03/12 09:49:37;;;;;;;0.30;0.20;;;;;;;10.71;76.02;99794.63;5044908;28;20447;-56
2021/03/12 09:52:11;;;;;;;0.30;0.20;;;;;;;10.76;74.53;99800.59;5035369;28;20446;-56
2021/03/12 09:54:38;;;;;;;0.30;0.20;;;;;;;10.80;73.60;99799.56;5040535;28;20515;-56
2021/03/12 09:57:05;;;;;;;0.30;0.20;;;;;;;10.90;72.36;99803.63;5047375;28;20470;-56
2021/03/12 09:59:35;;;;;;;0.30;0.20;;;;;;;10.76;71.93;99791.78;5044053;28;20979;-56
2021/03/12 10:02:15;;;;;;;0.30;0.20;;;;;;;10.87;71.60;99790.44;5044269;28;20455;-56
2021/03/12 10:04:43;;;;;;;0.30;0.20;;;;;;;10.91;71.71;99793.84;5051952;28;20535;-55
2021/03/12 10:07:40;;;;;;;0.30;0.20;;;;;;;10.89;71.95;99788.59;5051801;28;20469;-56
2021/03/12 10:10:18;;;;;;;0.30;0.20;;;;;;;10.72;71.84;99795.47;5048173;28;20453;-56
2021/03/12 10:12:45;;;;;;;0.30;0.20;;;;;;;10.95;71.42;99796.31;5043877;28;20446;-56
2021/03/12 10:15:36;;;;;;;0.30;0.20;;;;;;;10.52;72.28;99786.44;5045546;28;20471;-55
2021/03/12 10:18:04;;;;;;;0.30;0.20;;;;;;;10.62;72.97;99802.91;5047450;28;20507;-56
2021/03/12 10:20:33;;;;;;;0.30;0.20;;;;;;;10.50;73.37;99795.38;5048122;28;20451;-55
2021/03/12 10:23:01;;;;;;;0.30;0.20;;;;;;;10.51;73.41;99794.47;5044670;28;20455;-55
2021/03/12 10:25:38;;;;;;;0.30;0.20;;;;;;;10.37;73.51;99798.47;5042326;28;20455;-56
2021/03/12 10:28:09;;;;;;;0.30;0.20;;;;;;;10.41;73.63;99803.69;5043744;28;20468;-55
2021/03/12 10:30:42;;;;;;;0.30;0.20;;;;;;;10.36;74.89;99802.06;5048491;28;20817;-56
2021/03/12 10:33:17;;;;;;;4.57;2.10;;;;;;;10.63;74.69;99802.84;5048041;28;20484;-56
2021/03/12 10:35:45;;;;;;;0.30;0.20;;;;;;;10.85;75.26;99783.47;5050325;28;20451;-56
2021/03/12 10:38:27;;;;;;;0.30;0.20;;;;;;;11.01;73.12;99789.91;5050623;28;20446;-56
2021/03/12 10:40:59;;;;;;;0.30;0.20;;;;;;;10.77;70.66;99778.41;5046117;28;20469;-56
2021/03/12 10:43:32;;;;;;;0.30;0.20;;;;;;;11.22;71.31;99777.56;5043327;28;20498;-56
2021/03/12 10:46:02;;;;;;;0.30;0.20;;;;;;;11.20;68.65;99776.75;5045393;28;20447;-56
2021/03/12 10:48:37;;;;;;;0.30;0.20;;;;;;;11.13;65.35;99767.31;5049188;28;20459;-55
2021/03/12 10:51:05;;;;;;;0.30;0.20;;;;;;;11.11;65.45;99764.72;5048996;28;20529;-56
2021/03/12 10:53:53;;;;;;;0.30;0.20;;;;;;;11.25;66.90;99753.53;5044191;28;20490;-56
2021/03/12 10:56:20;;;;;;;0.30;0.20;;;;;;;11.65;67.87;99752.78;5041584;28;20863;-56
2021/03/12 10:58:50;;;;;;;0.30;0.20;;;;;;;11.68;67.94;99741.13;5048300;28;20570;-55
2021/03/12 11:01:22;;;;;;;0.30;0.20;;;;;;;11.82;67.14;99742.28;5052477;28;20936;-56
2021/03/12 11:03:49;;;;;;;0.30;0.20;;;;;;;11.82;67.78;99741.44;5051822;28;21014;-56
2021/03/12 11:06:18;;;;;;;0.30;0.20;;;;;;;11.63;68.02;99740.41;5046618;28;20477;-56
2021/03/12 11:08:46;;;;;;;0.30;0.20;;;;;;;11.60;67.08;99736.09;5045935;28;20448;-56
2021/03/12 11:11:15;;;;;;;30.03;2.00;;;;;;;11.38;67.26;99740.59;5050661;28;20452;-56
2021/03/12 11:13:41;;;;;;;0.47;0.47;;;;;;;11.38;69.17;99741.47;5050612;28;20454;-56
2021/03/12 11:16:09;;;;;;;0.30;0.20;;;;;;;10.86;71.75;99750.63;5043061;28;20502;-56
2021/03/12 11:18:36;;;;;;;0.30;0.20;;;;;;;10.88;71.45;99746.97;5043350;28;20495;-55
2021/03/12 11:21:06;;;;;;;0.30;0.20;;;;;;;10.83;71.67;99743.63;5027918;28;20462;-55
2021/03/12 11:23:32;;;;;;;0.30;0.20;;;;;;;10.66;70.82;99748.72;5040608;28;20960;-55
2021/03/12 11:25:59;;;;;;;0.30;0.20;;;;;;;10.53;72.94;99760.72;5046623;28;20459;-56
2021/03/12 11:28:26;;;;;;;0.30;0.20;;;;;;;10.52;75.44;99774.94;5046692;28;20508;-55
2021/03/12 11:30:54;;;;;;;0.30;0.20;;;;;;;9.75;88.18;99787.34;5039968;28;20869;-55
2021/03/12 11:33:20;;;;;;;0.30;0.20;;;;;;;9.39;94.13;99770.84;5040969;28;20451;-55
2021/03/12 11:35:51;;;;;;;0.30;0.20;;;;;;;9.22;94.00;99768.72;5045844;28;20518;-53
2021/03/12 11:38:17;;;;;;;0.30;0.20;;;;;;;9.19;99.45;99758.22;5046417;28;20455;-54
2021/03/12 11:40:44;;;;;;;0.30;0.20;;;;;;;9.57;97.58;99750.78;5041172;28;20831;-54
2021/03/12 11:43:10;;;;;;;0.30;0.20;;;;;;;9.59;93.54;99751.59;5039337;28;20954;-53
2021/03/12 11:45:36;;;;;;;0.30;0.20;;;;;;;9.76;93.15;99749.28;5043785;28;20502;-54
2021/03/12 11:48:06;;;;;;;0.30;0.20;;;;;;;10.07;94.62;99741.97;5045881;28;20482;-53
2021/03/12 11:50:35;;;;;;;0.30;0.20;;;;;;;10.09;93.85;99742.78;5041897;28;20936;-54
2021/03/12 11:53:02;;;;;;;0.30;0.20;;;;;;;10.46;92.06;99730.00;5039041;28;20469;-54